createdAt,value
2023-02-18T00:01:58.917Z,14.90
2023-02-18T00:04:27.002Z,13.30
2023-02-18T00:06:57.082Z,12.60
2023-02-18T00:09:25.824Z,14.00
2023-02-18T00:11:54.055Z,13.98
2023-02-18T00:14:24.227Z,12.68
2023-02-18T00:16:52.710Z,13.88
2023-02-18T00:19:22.632Z,13.90
2023-02-18T00:21:50.633Z,13.40
2023-02-18T00:24:20.355Z,11.10
2023-02-18T00:26:51.557Z,10.68
2023-02-18T00:29:21.042Z,11.38
2023-02-18T00:31:50.936Z,10.65
2023-02-18T00:34:20.850Z,11.73
2023-02-18T00:36:50.881Z,9.52
2023-02-18T00:39:18.748Z,12.18
2023-02-18T00:41:46.603Z,10.27
2023-02-18T00:44:18.078Z,11.02
2023-02-18T00:46:48.488Z,11.38
2023-02-18T00:49:17.769Z,12.93
2023-02-18T00:51:47.140Z,10.48
2023-02-18T00:54:14.909Z,11.23
2023-02-18T00:56:42.708Z,10.50
2023-02-18T00:59:11.049Z,11.25
2023-02-18T01:01:39.163Z,12.35
2023-02-18T01:04:08.972Z,11.45
2023-02-18T01:06:37.063Z,12.43
2023-02-18T01:09:06.574Z,10.65
2023-02-18T01:11:34.784Z,11.68
2023-02-18T01:14:07.271Z,12.32
2023-02-18T01:16:37.879Z,11.68
2023-02-18T01:19:09.407Z,12.85
2023-02-18T01:21:38.971Z,11.57
2023-02-18T01:24:07.230Z,11.93
2023-02-18T01:26:37.417Z,10.95
2023-02-18T01:29:05.313Z,11.60
2023-02-18T01:31:33.363Z,12.85
2023-02-18T01:34:04.564Z,13.55
2023-02-18T01:36:32.435Z,11.10
2023-02-18T01:39:00.859Z,10.32
2023-02-18T01:41:29.283Z,11.52
2023-02-18T01:44:20.116Z,12.18
2023-02-18T01:46:52.452Z,12.48
2023-02-18T01:49:31.276Z,12.32
2023-02-18T01:52:13.645Z,10.77
2023-02-18T01:54:46.065Z,12.00
2023-02-18T01:57:31.744Z,10.38
2023-02-18T02:00:06.902Z,11.85
2023-02-18T02:02:50.786Z,10.50
2023-02-18T02:05:20.525Z,14.30
2023-02-18T02:07:53.816Z,11.73
2023-02-18T02:10:21.709Z,11.95
2023-02-18T02:13:21.203Z,11.73
2023-02-18T02:15:58.739Z,12.38
2023-02-18T02:19:06.699Z,12.65
2023-02-18T02:22:04.422Z,11.68
2023-02-18T02:25:01.652Z,13.65
2023-02-18T02:30:41.785Z,16.33
2023-02-18T02:33:46.959Z,15.75
2023-02-18T02:36:32.915Z,13.43
2023-02-18T02:39:19.227Z,15.60
2023-02-18T02:42:01.070Z,14.52
2023-02-18T02:44:58.062Z,15.90
2023-02-18T02:47:37.290Z,15.05
2023-02-18T02:50:18.209Z,16.38
2023-02-18T02:52:53.021Z,14.52
2023-02-18T02:55:21.325Z,17.15
2023-02-18T02:57:55.020Z,18.23
2023-02-18T03:01:10.196Z,16.70
2023-02-18T03:04:05.013Z,16.77
2023-02-18T03:06:49.256Z,17.40
2023-02-18T03:09:42.551Z,18.50
2023-02-18T03:12:31.370Z,17.08
2023-02-18T03:15:12.614Z,18.35
2023-02-18T03:18:23.715Z,15.90
2023-02-18T03:21:46.245Z,17.75
2023-02-18T03:24:53.560Z,15.40
2023-02-18T03:27:35.120Z,17.75
2023-02-18T03:30:21.692Z,16.75
2023-02-18T03:32:56.541Z,16.88
2023-02-18T03:35:28.542Z,18.08
2023-02-18T03:38:14.452Z,14.88
2023-02-18T03:40:42.868Z,15.85
2023-02-18T03:43:11.048Z,16.92
2023-02-18T03:45:40.333Z,15.32
2023-02-18T03:48:09.717Z,16.42
2023-02-18T03:50:37.619Z,16.88
2023-02-18T03:53:09.854Z,15.75
2023-02-18T03:55:38.931Z,16.95
2023-02-18T03:58:08.503Z,16.05
2023-02-18T04:00:36.310Z,16.77
2023-02-18T04:03:05.246Z,16.73
2023-02-18T04:05:33.319Z,17.98
2023-02-18T04:08:01.112Z,17.60
2023-02-18T04:10:28.919Z,17.65
2023-02-18T04:12:56.799Z,16.92
2023-02-18T04:15:24.805Z,16.98
2023-02-18T04:17:53.194Z,17.95
2023-02-18T04:20:22.824Z,18.45
2023-02-18T04:22:50.777Z,17.85
2023-02-18T04:25:18.756Z,16.00
2023-02-18T04:27:46.623Z,17.17
2023-02-18T04:30:17.849Z,17.15
2023-02-18T04:32:46.726Z,20.25
2023-02-18T04:35:14.780Z,18.17
2023-02-18T04:37:42.523Z,15.77
2023-02-18T04:40:10.922Z,16.60
2023-02-18T04:42:39.678Z,15.32
2023-02-18T04:45:07.906Z,15.52
2023-02-18T04:47:35.784Z,18.08
2023-02-18T04:50:04.301Z,17.35
2023-02-18T04:52:33.902Z,19.95
2023-02-18T04:55:01.742Z,18.88
2023-02-18T04:57:30.044Z,18.77
2023-02-18T04:59:57.978Z,16.50
2023-02-18T05:02:28.629Z,19.67
2023-02-18T05:04:56.467Z,17.67
2023-02-18T05:07:26.945Z,18.05
2023-02-18T05:09:55.817Z,18.70
2023-02-18T05:12:23.696Z,17.77
2023-02-18T05:14:52.577Z,20.27
2023-02-18T05:17:20.597Z,17.88
2023-02-18T05:19:48.478Z,19.38
2023-02-18T05:22:16.290Z,18.60
2023-02-18T05:24:48.077Z,17.80
2023-02-18T05:27:15.871Z,20.70
2023-02-18T05:29:43.675Z,18.23
2023-02-18T05:32:11.519Z,18.02
2023-02-18T05:34:39.254Z,18.05
2023-02-18T05:37:06.931Z,19.83
2023-02-18T05:39:34.760Z,19.77
2023-02-18T05:42:02.494Z,20.55
2023-02-18T05:44:30.365Z,17.88
2023-02-18T05:47:00.580Z,19.58
2023-02-18T05:49:29.719Z,18.10
2023-02-18T05:51:59.125Z,21.65
2023-02-18T05:54:27.755Z,21.23
2023-02-18T05:56:56.231Z,21.08
2023-02-18T05:59:25.105Z,25.88
2023-02-18T06:01:54.136Z,21.80
2023-02-18T06:04:23.633Z,20.38
2023-02-18T06:06:51.980Z,21.00
2023-02-18T06:09:19.971Z,21.75
2023-02-18T06:11:49.719Z,20.42
2023-02-18T06:14:17.718Z,21.42
2023-02-18T06:16:46.207Z,20.98
2023-02-18T06:19:14.079Z,19.02
2023-02-18T06:21:41.814Z,19.92
2023-02-18T06:24:09.593Z,19.17
2023-02-18T06:26:37.675Z,22.52
2023-02-18T06:29:05.369Z,21.63
2023-02-18T06:31:35.889Z,20.23
2023-02-18T06:34:03.911Z,22.15
2023-02-18T06:36:31.808Z,21.27
2023-02-18T06:38:59.561Z,21.50
2023-02-18T06:41:27.355Z,21.15
2023-02-18T06:43:58.702Z,25.45
2023-02-18T06:46:26.571Z,23.88
2023-02-18T06:48:54.906Z,22.30
2023-02-18T06:51:23.962Z,22.48
2023-02-18T06:53:52.225Z,23.48
2023-02-18T06:56:20.122Z,20.60
2023-02-18T06:58:49.232Z,24.90
2023-02-18T07:01:17.021Z,22.60
2023-02-18T07:03:44.951Z,22.00
2023-02-18T07:06:13.015Z,22.98
2023-02-18T07:08:41.264Z,24.65
2023-02-18T07:11:09.015Z,22.98
2023-02-18T07:13:42.129Z,22.92
2023-02-18T07:16:10.334Z,23.98
2023-02-18T07:18:40.405Z,20.80
2023-02-18T07:21:10.389Z,24.05
2023-02-18T07:23:38.819Z,21.50
2023-02-18T07:26:09.603Z,23.55
2023-02-18T07:28:39.745Z,22.73
2023-02-18T07:31:10.692Z,20.40
2023-02-18T07:33:39.531Z,22.48
2023-02-18T07:36:10.487Z,24.50
2023-02-18T07:38:41.285Z,25.45
2023-02-18T07:41:22.760Z,22.80
2023-02-18T07:43:50.845Z,23.08
2023-02-18T07:46:19.352Z,19.92
2023-02-18T07:48:47.208Z,22.67
2023-02-18T07:51:16.243Z,22.98
2023-02-18T07:53:46.051Z,23.55
2023-02-18T07:56:15.286Z,23.58
2023-02-18T07:58:43.128Z,23.60
2023-02-18T08:01:15.274Z,23.85
2023-02-18T08:03:43.278Z,23.52
2023-02-18T08:06:25.748Z,24.35
2023-02-18T08:08:55.218Z,27.23
2023-02-18T08:11:23.445Z,31.50
2023-02-18T08:13:55.846Z,29.40
2023-02-18T08:16:24.318Z,27.95
2023-02-18T08:18:53.173Z,25.25
2023-02-18T08:21:23.414Z,25.45
2023-02-18T08:23:52.157Z,22.85
2023-02-18T08:26:22.740Z,22.63
2023-02-18T08:28:50.896Z,25.65
2023-02-18T08:31:23.129Z,29.20
2023-02-18T08:33:52.813Z,30.02
2023-02-18T08:36:20.915Z,24.48
2023-02-18T08:38:48.887Z,26.65
2023-02-18T08:41:19.311Z,25.27
2023-02-18T08:43:48.307Z,28.00
2023-02-18T08:46:25.239Z,27.35
2023-02-18T08:49:04.951Z,25.90
2023-02-18T08:51:33.547Z,24.38
2023-02-18T08:54:01.589Z,26.95
2023-02-18T08:56:29.752Z,26.40
2023-02-18T08:58:58.727Z,27.20
2023-02-18T09:01:27.496Z,25.08
2023-02-18T09:04:00.512Z,27.88
2023-02-18T09:06:30.073Z,26.70
2023-02-18T09:08:59.450Z,25.70
2023-02-18T09:11:27.500Z,26.55
2023-02-18T09:13:55.363Z,25.67
2023-02-18T09:16:26.135Z,33.95
2023-02-18T09:18:54.266Z,32.58
2023-02-18T09:21:23.795Z,28.50
2023-02-18T09:23:51.921Z,26.58
2023-02-18T09:26:23.241Z,27.67
2023-02-18T09:28:54.291Z,31.02
2023-02-18T09:31:24.474Z,39.47
2023-02-18T09:33:59.779Z,25.95
2023-02-18T09:36:28.347Z,26.05
2023-02-18T09:38:58.135Z,26.17
2023-02-18T09:41:50.683Z,27.05
2023-02-18T09:44:51.134Z,26.65
2023-02-18T09:47:45.430Z,27.73
2023-02-18T09:50:21.309Z,28.23
2023-02-18T09:52:50.215Z,36.90
2023-02-18T09:55:33.953Z,29.73
2023-02-18T09:58:10.410Z,28.98
2023-02-18T10:00:47.776Z,30.63
2023-02-18T10:03:20.511Z,29.40
2023-02-18T10:05:58.180Z,33.97
2023-02-18T10:08:29.007Z,28.17
2023-02-18T10:10:57.393Z,29.95
2023-02-18T10:13:30.964Z,32.83
2023-02-18T10:15:59.314Z,27.77
2023-02-18T10:18:35.297Z,33.08
2023-02-18T10:21:08.339Z,36.25
2023-02-18T10:23:40.891Z,33.35
2023-02-18T10:26:16.965Z,34.65
2023-02-18T10:28:46.698Z,35.75
2023-02-18T10:31:20.850Z,28.05
2023-02-18T10:34:34.513Z,34.33
2023-02-18T10:37:15.832Z,39.10
2023-02-18T10:40:08.239Z,39.30
2023-02-18T10:43:16.946Z,34.25
2023-02-18T10:46:18.985Z,31.15
2023-02-18T10:49:01.020Z,33.75
2023-02-18T10:51:33.408Z,32.50
2023-02-18T10:54:02.604Z,34.85
2023-02-18T10:56:50.985Z,32.08
2023-02-18T10:59:24.569Z,34.75
2023-02-18T11:02:19.538Z,36.25
2023-02-18T11:04:47.899Z,35.45
2023-02-18T11:07:47.126Z,36.20
2023-02-18T11:10:26.411Z,39.55
2023-02-18T11:13:05.617Z,38.63
2023-02-18T11:15:34.786Z,46.38
2023-02-18T11:18:25.265Z,45.40
2023-02-18T11:21:03.858Z,39.40
2023-02-18T11:23:33.165Z,40.25
2023-02-18T11:26:13.252Z,41.10
2023-02-18T11:28:50.482Z,37.67
2023-02-18T11:34:03.446Z,38.03
2023-02-18T11:36:35.250Z,42.65
2023-02-18T11:39:34.084Z,37.22
2023-02-18T11:42:05.300Z,43.35
2023-02-18T11:44:34.807Z,37.05
2023-02-18T11:47:12.605Z,32.28
2023-02-18T11:50:00.247Z,36.42
2023-02-18T11:52:44.976Z,32.70
2023-02-18T11:55:22.471Z,29.10
2023-02-18T11:58:08.837Z,26.25
2023-02-18T12:00:43.063Z,23.55
2023-02-18T12:03:29.580Z,25.40
2023-02-18T12:06:14.324Z,33.47
2023-02-18T12:09:06.433Z,39.30
2023-02-18T12:11:40.663Z,38.13
2023-02-18T12:14:23.281Z,37.85
2023-02-18T12:17:22.357Z,34.17
2023-02-18T12:20:03.450Z,28.95
2023-02-18T12:23:10.969Z,28.35
2023-02-18T12:26:08.155Z,29.90
2023-02-18T12:28:51.673Z,31.10
2023-02-18T12:31:31.094Z,28.63
2023-02-18T12:34:33.017Z,27.25
2023-02-18T12:37:00.755Z,24.33
2023-02-18T12:39:47.085Z,25.10
2023-02-18T12:42:31.984Z,27.40
2023-02-18T12:45:05.917Z,25.88
2023-02-18T12:48:01.912Z,33.65
2023-02-18T12:50:59.373Z,28.30
2023-02-18T12:53:42.599Z,58.25
2023-02-18T12:56:10.610Z,69.68
2023-02-18T12:59:16.219Z,62.85
2023-02-18T13:01:59.367Z,106.20
2023-02-18T13:04:54.732Z,156.32
2023-02-18T13:07:48.117Z,117.57
2023-02-18T13:10:48.638Z,95.45
2023-02-18T13:13:31.686Z,94.95
2023-02-18T13:16:06.916Z,78.40
2023-02-18T13:18:36.586Z,71.38
2023-02-18T13:21:13.119Z,68.63
2023-02-18T13:24:02.779Z,52.05
2023-02-18T13:26:33.325Z,35.33
2023-02-18T13:29:22.351Z,36.22
2023-02-18T13:32:10.936Z,42.53
2023-02-18T13:34:50.558Z,42.05
2023-02-18T13:37:52.662Z,65.38
2023-02-18T13:40:31.379Z,64.93
2023-02-18T13:43:21.641Z,58.45
2023-02-18T13:46:11.105Z,53.50
2023-02-18T13:48:53.906Z,40.75
2023-02-18T13:51:33.866Z,37.42
2023-02-18T13:54:13.149Z,32.15
2023-02-18T13:56:46.365Z,40.60
2023-02-18T13:59:43.677Z,34.47
2023-02-18T14:02:21.118Z,30.48
2023-02-18T14:04:51.106Z,29.67
2023-02-18T14:07:37.042Z,23.85
2023-02-18T14:10:31.935Z,22.17
2023-02-18T14:12:59.810Z,19.15
2023-02-18T14:15:28.069Z,18.27
2023-02-18T14:18:02.923Z,22.23
2023-02-18T14:20:39.566Z,18.67
2023-02-18T14:23:19.742Z,17.77
2023-02-18T14:26:07.433Z,14.50
2023-02-18T14:28:39.010Z,13.10
2023-02-18T14:31:14.757Z,13.70
2023-02-18T14:33:50.791Z,12.68
2023-02-18T14:36:30.623Z,12.60
2023-02-18T14:39:10.336Z,12.98
2023-02-18T14:42:03.354Z,11.73
2023-02-18T14:45:05.412Z,11.15
2023-02-18T14:47:45.523Z,10.07
2023-02-18T14:50:18.751Z,10.15
2023-02-18T14:53:03.656Z,8.35
2023-02-18T14:55:46.577Z,9.65
2023-02-18T14:58:29.840Z,9.38
2023-02-18T15:00:57.706Z,7.28
2023-02-18T15:03:28.929Z,7.75
2023-02-18T15:05:56.803Z,7.15
2023-02-18T15:08:26.515Z,6.72
2023-02-18T15:11:01.914Z,6.97
2023-02-18T15:13:33.324Z,7.47
2023-02-18T15:16:05.575Z,6.82
2023-02-18T15:18:38.199Z,5.40
2023-02-18T15:21:10.244Z,6.95
2023-02-18T15:23:41.311Z,8.82
2023-02-18T15:26:15.458Z,5.78
2023-02-18T15:28:55.686Z,11.90
2023-02-18T15:31:27.595Z,6.57
2023-02-18T15:33:57.001Z,6.05
2023-02-18T15:36:27.252Z,7.75
2023-02-18T15:38:57.536Z,6.78
2023-02-18T15:41:25.733Z,6.50
2023-02-18T15:44:04.179Z,6.32
2023-02-18T15:46:33.399Z,7.10
2023-02-18T15:49:09.076Z,6.22
2023-02-18T15:51:39.361Z,6.65
2023-02-18T15:54:07.285Z,6.32
2023-02-18T15:56:45.562Z,7.15
2023-02-18T15:59:43.053Z,5.95
2023-02-18T16:02:23.276Z,7.13
2023-02-18T16:05:00.640Z,6.13
2023-02-18T16:07:39.913Z,6.00
2023-02-18T16:10:23.930Z,6.57
2023-02-18T16:13:01.919Z,5.30
2023-02-18T16:15:32.686Z,6.80
2023-02-18T16:18:01.032Z,6.95
2023-02-18T16:20:38.470Z,6.53
2023-02-18T16:23:16.454Z,5.93
2023-02-18T16:25:51.797Z,7.63
2023-02-18T16:28:29.212Z,7.65
2023-02-18T16:31:00.032Z,8.35
2023-02-18T16:33:27.879Z,6.90
2023-02-18T16:35:58.138Z,7.82
2023-02-18T16:38:29.474Z,9.52
2023-02-18T16:43:43.735Z,9.95
2023-02-18T16:46:24.701Z,7.97
2023-02-18T16:48:58.711Z,8.80
2023-02-18T16:51:34.310Z,10.75
2023-02-18T16:54:04.495Z,8.73
2023-02-18T16:56:36.738Z,9.55
2023-02-18T16:59:05.575Z,7.53
2023-02-18T17:01:42.799Z,8.15
2023-02-18T17:04:16.167Z,9.43
2023-02-18T17:06:50.882Z,8.07
2023-02-18T17:09:22.908Z,8.57
2023-02-18T17:11:55.962Z,7.45
2023-02-18T17:14:25.087Z,11.55
2023-02-18T17:16:56.275Z,9.88
2023-02-18T17:19:24.441Z,9.55
2023-02-18T17:21:52.296Z,9.52
2023-02-18T17:24:21.363Z,11.95
2023-02-18T17:26:52.470Z,12.18
2023-02-18T17:29:24.539Z,10.85
2023-02-18T17:31:57.067Z,8.38
2023-02-18T17:34:31.403Z,10.48
2023-02-18T17:37:03.462Z,9.85
2023-02-18T17:39:33.605Z,12.30
2023-02-18T17:42:04.298Z,11.80
2023-02-18T17:44:32.509Z,13.10
2023-02-18T17:47:01.943Z,12.63
2023-02-18T17:49:32.662Z,10.00
2023-02-18T17:52:02.378Z,10.13
2023-02-18T17:54:30.756Z,10.25
2023-02-18T17:56:59.972Z,9.60
2023-02-18T17:59:33.344Z,5.95
2023-02-18T18:02:01.132Z,7.05
2023-02-18T18:04:29.448Z,5.80
2023-02-18T18:06:57.283Z,6.22
2023-02-18T18:09:25.715Z,9.60
2023-02-18T18:11:53.805Z,11.40
2023-02-18T18:14:21.581Z,17.42
2023-02-18T18:16:49.467Z,24.45
2023-02-18T18:19:17.158Z,17.38
2023-02-18T18:21:47.126Z,12.55
2023-02-18T18:24:15.273Z,10.82
2023-02-18T18:29:14.659Z,10.82
2023-02-18T18:31:43.985Z,10.98
2023-02-18T18:34:17.166Z,13.60
2023-02-18T18:36:44.981Z,12.27
2023-02-18T18:39:13.008Z,9.82
2023-02-18T18:41:41.016Z,10.38
2023-02-18T18:44:11.296Z,7.45
2023-02-18T18:46:41.072Z,9.02
2023-02-18T18:49:09.147Z,8.70
2023-02-18T18:51:37.381Z,9.02
2023-02-18T18:54:06.405Z,9.30
2023-02-18T18:56:35.933Z,11.00
2023-02-18T18:59:04.208Z,9.07
2023-02-18T19:01:33.427Z,11.18
2023-02-18T19:04:03.159Z,11.32
2023-02-18T19:06:32.196Z,11.13
2023-02-18T19:09:00.232Z,10.52
2023-02-18T19:11:28.330Z,11.57
2023-02-18T19:13:56.087Z,11.88
2023-02-18T19:16:44.429Z,11.23
2023-02-18T19:19:14.904Z,10.95
2023-02-18T19:21:46.834Z,14.52
2023-02-18T19:24:14.749Z,14.52
2023-02-18T19:26:42.511Z,12.23
2023-02-18T19:29:10.428Z,11.25
2023-02-18T19:31:38.464Z,11.68
2023-02-18T19:34:06.396Z,10.70
2023-02-18T19:36:34.361Z,15.27
2023-02-18T19:39:04.127Z,15.15
2023-02-18T19:41:32.166Z,16.40
2023-02-18T19:44:00.088Z,17.63
2023-02-18T19:46:28.073Z,19.10
2023-02-18T19:48:56.264Z,14.32
2023-02-18T19:51:25.159Z,12.55
2023-02-18T19:53:53.229Z,15.38
2023-02-18T19:56:21.999Z,14.10
2023-02-18T19:58:49.719Z,14.20
2023-02-18T20:01:18.484Z,16.70
2023-02-18T20:03:47.495Z,13.75
2023-02-18T20:06:21.103Z,16.98
2023-02-18T20:08:48.983Z,17.67
2023-02-18T20:11:17.306Z,16.27
2023-02-18T20:13:45.301Z,21.25
2023-02-18T20:16:13.115Z,22.48
2023-02-18T20:18:42.170Z,19.50
2023-02-18T20:21:12.002Z,18.45
2023-02-18T20:23:40.227Z,20.40
2023-02-18T20:26:16.054Z,20.02
2023-02-18T20:28:44.830Z,21.55
2023-02-18T20:31:16.109Z,20.50
2023-02-18T20:33:45.797Z,20.08
2023-02-18T20:36:18.820Z,24.02
2023-02-18T20:38:49.997Z,21.80
2023-02-18T20:41:19.618Z,17.42
2023-02-18T20:43:48.391Z,18.08
2023-02-18T20:46:22.927Z,17.77
2023-02-18T20:48:52.295Z,16.90
2023-02-18T20:51:22.516Z,18.52
2023-02-18T20:53:52.032Z,16.88
2023-02-18T20:56:21.711Z,23.00
2023-02-18T20:58:49.950Z,20.77
2023-02-18T21:01:22.099Z,24.73
2023-02-18T21:03:50.241Z,21.35
2023-02-18T21:06:21.891Z,20.25
2023-02-18T21:08:52.237Z,21.05
2023-02-18T21:11:22.823Z,18.80
2023-02-18T21:13:52.480Z,20.70
2023-02-18T21:16:22.255Z,17.98
2023-02-18T21:18:50.316Z,18.73
2023-02-18T21:21:22.938Z,21.58
2023-02-18T21:23:52.587Z,17.67
2023-02-18T21:26:23.721Z,18.80
2023-02-18T21:28:55.171Z,16.23
2023-02-18T21:31:25.308Z,19.85
2023-02-18T21:33:54.014Z,18.23
2023-02-18T21:36:22.488Z,16.75
2023-02-18T21:38:55.075Z,17.25
2023-02-18T21:41:25.056Z,19.05
2023-02-18T21:43:53.192Z,21.63
2023-02-18T21:46:34.554Z,16.77
2023-02-18T21:49:03.321Z,18.83
2023-02-18T21:51:53.319Z,20.92
2023-02-18T21:54:22.868Z,20.30
2023-02-18T21:56:50.861Z,21.42
2023-02-18T21:59:20.596Z,19.63
2023-02-18T22:01:49.355Z,19.02
2023-02-18T22:04:17.269Z,20.27
2023-02-18T22:06:45.564Z,20.63
2023-02-18T22:09:13.691Z,19.42
2023-02-18T22:11:43.075Z,20.25
2023-02-18T22:14:13.199Z,21.17
2023-02-18T22:16:42.073Z,21.05
2023-02-18T22:19:12.384Z,21.15
2023-02-18T22:21:41.153Z,21.83
2023-02-18T22:24:11.094Z,19.88
2023-02-18T22:26:39.018Z,22.33
2023-02-18T22:29:06.667Z,23.15
2023-02-18T22:31:34.472Z,25.05
2023-02-18T22:34:02.624Z,28.67
2023-02-18T22:36:30.749Z,22.77
2023-02-18T22:39:00.709Z,20.35
2023-02-18T22:41:30.434Z,17.38
2023-02-18T22:44:00.642Z,23.88
2023-02-18T22:46:29.879Z,23.30
2023-02-18T22:48:58.837Z,23.33
2023-02-18T22:51:41.511Z,20.35
2023-02-18T22:54:16.955Z,18.75
2023-02-18T22:56:46.638Z,19.20
2023-02-18T22:59:16.742Z,17.08
2023-02-18T23:01:49.709Z,18.10
2023-02-18T23:04:19.755Z,15.88
2023-02-18T23:06:48.133Z,17.10
2023-02-18T23:09:19.916Z,23.17
2023-02-18T23:11:53.409Z,18.58
2023-02-18T23:14:22.050Z,19.77
2023-02-18T23:17:14.010Z,21.10
2023-02-18T23:19:47.167Z,20.13
2023-02-18T23:22:19.923Z,19.75
2023-02-18T23:24:49.747Z,18.30
2023-02-18T23:27:18.276Z,16.15
2023-02-18T23:29:47.491Z,16.60
2023-02-18T23:32:18.064Z,16.52
2023-02-18T23:34:50.183Z,20.48
2023-02-18T23:37:18.594Z,21.25
2023-02-18T23:39:48.051Z,20.92
2023-02-18T23:42:17.414Z,20.73
2023-02-18T23:44:46.491Z,20.67
2023-02-18T23:47:14.321Z,25.98
2023-02-18T23:49:43.315Z,32.90
2023-02-18T23:52:11.266Z,27.13
2023-02-18T23:54:39.964Z,25.67
2023-02-18T23:57:08.956Z,23.35
2023-02-18T23:59:37.173Z,23.40
